Time;durP1;ratioP1;P1;durP2;ratioP2;P2;SDS_P1;SDS_P2;PMS_P1;PMS_P2;Temp;Humidity;BMP_temperature;BMP_pressure;BME280_temperature;BME280_humidity;BME280_pressure;Samples;Min_cycle;Max_cycle;Signal;HPM_P1;HPM_P2
2024/02/27 00:02:16;;;;;;;5.75;2.80;;;11.60;99.90;;;;;;10101813;28;20036;-67
2024/02/27 00:07:08;;;;;;;4.72;2.70;;;11.60;99.90;;;;;;10101103;28;20163;-69
2024/02/27 00:11:58;;;;;;;4.43;2.42;;;11.50;99.90;;;;;;10102851;28;20501;-66
2024/02/27 00:16:49;;;;;;;4.60;2.17;;;11.50;99.90;;;;;;10101579;28;20029;-69
2024/02/27 00:21:39;;;;;;;2.90;2.00;;;11.60;99.90;;;;;;10099608;28;20044;-69
2024/02/27 00:26:30;;;;;;;4.72;2.38;;;11.40;99.90;;;;;;10100341;28;20413;-66
2024/02/27 00:31:21;;;;;;;4.22;2.70;;;11.30;99.90;;;;;;10100480;28;20103;-65
2024/02/27 00:36:11;;;;;;;3.92;2.60;;;11.30;99.90;;;;;;10108091;28;20052;-65
2024/02/27 00:41:03;;;;;;;3.67;2.40;;;11.20;99.90;;;;;;10083914;28;20057;-65
2024/02/27 00:45:54;;;;;;;5.88;2.22;;;11.30;99.90;;;;;;10100870;28;20493;-66
2024/02/27 00:50:44;;;;;;;3.38;2.03;;;11.20;99.90;;;;;;10103831;28;20033;-65
2024/02/27 00:55:35;;;;;;;4.13;2.20;;;11.20;99.90;;;;;;10100521;28;20086;-65
2024/02/27 01:00:26;;;;;;;4.57;2.45;;;11.20;99.90;;;;;;10083450;28;20025;-66
2024/02/27 01:05:16;;;;;;;3.80;2.08;;;11.10;99.90;;;;;;10109318;28;20063;-66
2024/02/27 01:10:07;;;;;;;4.07;2.35;;;11.10;99.90;;;;;;10106208;28;20033;-65
2024/02/27 01:14:58;;;;;;;4.22;2.30;;;11.10;99.90;;;;;;10101947;28;20438;-65
2024/02/27 01:19:49;;;;;;;4.15;2.67;;;11.10;99.90;;;;;;10100289;28;20025;-68
2024/02/27 01:24:39;;;;;;;5.18;2.22;;;11.10;99.90;;;;;;10101713;28;20044;-69
2024/02/27 01:29:30;;;;;;;4.03;2.13;;;10.90;99.90;;;;;;10100828;28;20641;-68
2024/02/27 01:34:21;;;;;;;3.70;2.20;;;10.90;99.90;;;;;;10101738;28;20025;-68
2024/02/27 01:39:13;;;;;;;5.28;2.78;;;11.00;99.90;;;;;;10100815;28;20052;-68
2024/02/27 01:44:03;;;;;;;2.85;2.03;;;11.00;99.90;;;;;;10103804;28;20159;-68
2024/02/27 01:48:55;;;;;;;5.28;2.40;;;11.00;99.90;;;;;;10098751;28;20522;-67
2024/02/27 01:53:50;;;;;;;3.78;2.17;;;11.00;99.90;;;;;;10097873;28;20112;-69
2024/02/27 01:58:41;;;;;;;3.15;1.90;;;11.00;99.90;;;;;;10103702;28;20116;-68
2024/02/27 02:03:37;;;;;;;6.45;2.80;;;10.90;99.90;;;;;;10109615;28;20056;-68
2024/02/27 02:08:27;;;;;;;4.88;2.50;;;10.90;99.90;;;;;;10116365;28;20033;-69
2024/02/27 02:13:18;;;;;;;5.15;2.20;;;10.80;99.90;;;;;;10096356;28;20501;-68
2024/02/27 02:18:09;;;;;;;4.13;2.20;;;10.80;99.90;;;;;;10097161;28;20082;-67
2024/02/27 02:22:59;;;;;;;5.65;2.97;;;10.70;99.90;;;;;;10103493;28;20127;-68
2024/02/27 02:27:51;;;;;;;4.30;2.35;;;10.70;99.90;;;;;;10097637;28;20032;-69
2024/02/27 02:32:48;;;;;;;3.03;2.35;;;10.70;99.90;;;;;;10100559;28;20288;-70
2024/02/27 02:37:39;;;;;;;5.15;3.00;;;10.60;99.90;;;;;;10102020;28;20049;-69
2024/02/27 02:42:30;;;;;;;3.83;2.72;;;10.70;99.90;;;;;;10105194;28;20040;-69
2024/02/27 02:47:21;;;;;;;5.28;2.33;;;10.60;99.90;;;;;;10097709;28;20037;-70
2024/02/27 02:52:11;;;;;;;5.75;2.63;;;10.60;99.90;;;;;;10096018;28;20068;-69
2024/02/27 02:57:02;;;;;;;2.97;2.10;;;10.60;99.90;;;;;;10113794;28;20048;-69
2024/02/27 03:01:52;;;;;;;3.08;2.40;;;10.60;99.90;;;;;;10119297;28;20070;-69
2024/02/27 03:06:43;;;;;;;4.70;3.13;;;10.60;99.90;;;;;;10095640;28;20101;-69
2024/02/27 03:11:34;;;;;;;4.25;2.50;;;10.50;99.90;;;;;;10095796;28;20195;-65
2024/02/27 03:16:25;;;;;;;3.78;2.72;;;10.50;99.90;;;;;;10096706;28;20040;-66
2024/02/27 03:21:15;;;;;;;6.00;3.45;;;10.50;99.90;;;;;;10096500;28;20033;-68
2024/02/27 03:26:06;;;;;;;3.33;2.40;;;10.50;99.90;;;;;;10100649;28;20037;-68
2024/02/27 03:30:56;;;;;;;4.07;3.03;;;10.50;99.90;;;;;;10103869;28;20069;-68
2024/02/27 03:35:47;;;;;;;3.45;2.33;;;10.50;99.90;;;;;;10092031;28;20518;-66
2024/02/27 03:40:38;;;;;;;4.43;2.67;;;10.50;99.90;;;;;;10104303;28;20494;-66
2024/02/27 03:45:28;;;;;;;4.38;2.92;;;10.50;99.90;;;;;;10105956;28;20043;-66
2024/02/27 03:50:19;;;;;;;5.63;2.83;;;10.50;99.90;;;;;;10101595;28;20031;-67
2024/02/27 03:55:10;;;;;;;5.32;3.60;;;10.50;99.90;;;;;;10102683;28;20483;-66
2024/02/27 04:00:02;;;;;;;5.88;3.17;;;10.50;99.90;;;;;;10102065;28;20025;-66
2024/02/27 04:04:53;;;;;;;7.30;3.28;;;10.40;99.90;;;;;;10101783;28;20045;-65
2024/02/27 04:09:43;;;;;;;5.53;3.03;;;10.40;99.90;;;;;;10102079;28;20039;-65
2024/02/27 04:14:34;;;;;;;5.65;3.40;;;10.30;99.90;;;;;;10083019;28;20036;-65
2024/02/27 04:19:24;;;;;;;5.20;3.60;;;10.30;99.90;;;;;;10108357;28;20029;-65
2024/02/27 04:24:15;;;;;;;5.95;3.40;;;10.20;99.90;;;;;;10105837;28;20048;-66
2024/02/27 04:29:06;;;;;;;7.13;4.45;;;10.10;99.90;;;;;;10102902;28;20028;-66
2024/02/27 04:33:56;;;;;;;9.18;4.38;;;10.10;99.90;;;;;;10101158;28;20032;-65
2024/02/27 04:38:47;;;;;;;6.30;3.88;;;10.00;99.90;;;;;;10106167;28;20045;-65
2024/02/27 04:43:38;;;;;;;11.48;4.78;;;10.10;99.90;;;;;;10106965;28;20131;-69
2024/02/27 04:48:28;;;;;;;7.35;4.07;;;10.00;99.90;;;;;;10105271;28;20029;-67
2024/02/27 04:53:19;;;;;;;8.32;4.13;;;10.00;99.90;;;;;;10100843;28;20066;-66
2024/02/27 04:58:09;;;;;;;8.52;4.47;;;10.10;99.90;;;;;;10100248;28;20083;-69
2024/02/27 05:03:00;;;;;;;9.00;4.93;;;10.10;99.90;;;;;;10100086;28;20735;-71
2024/02/27 05:07:51;;;;;;;9.43;4.63;;;10.00;99.90;;;;;;10102194;28;20676;-67
2024/02/27 05:12:41;;;;;;;9.13;4.60;;;9.90;99.90;;;;;;10104415;28;20025;-69
2024/02/27 05:17:32;;;;;;;8.68;4.80;;;10.00;99.90;;;;;;10105358;28;20479;-67
2024/02/27 05:22:22;;;;;;;11.80;6.15;;;10.10;99.90;;;;;;10105256;28;20029;-69
2024/02/27 05:27:14;;;;;;;9.98;5.57;;;10.20;99.90;;;;;;10114666;28;20071;-65
2024/02/27 05:32:05;;;;;;;9.00;5.60;;;10.00;99.90;;;;;;10118023;28;20036;-63
2024/02/27 05:36:55;;;;;;;12.57;6.18;;;10.00;99.90;;;;;;10112604;28;20033;-65
2024/02/27 05:41:46;;;;;;;12.25;6.50;;;10.00;99.90;;;;;;10097855;28;20044;-65
2024/02/27 05:46:37;;;;;;;10.20;6.50;;;9.90;99.90;;;;;;10097500;28;20037;-65
2024/02/27 05:51:27;;;;;;;13.82;6.90;;;9.90;99.90;;;;;;10099274;28;20042;-65
2024/02/27 05:56:21;;;;;;;18.17;7.88;;;9.80;99.90;;;;;;10097969;28;20037;-65
2024/02/27 06:01:12;;;;;;;14.57;8.23;;;9.70;99.90;;;;;;10098913;28;20485;-64
2024/02/27 06:06:02;;;;;;;14.02;8.70;;;9.70;99.90;;;;;;10096903;28;20045;-65
2024/02/27 06:10:53;;;;;;;17.30;8.90;;;9.70;99.90;;;;;;10103336;28;20138;-65
2024/02/27 06:15:47;;;;;;;17.33;8.82;;;9.70;99.90;;;;;;10102399;28;20143;-64
2024/02/27 06:25:47;;;;;;;17.58;8.35;;;9.70;99.90;;;;;;10111338;28;20086;-66
2024/02/27 06:30:39;;;;;;;25.05;9.02;;;9.60;99.90;;;;;;10103956;28;20078;-66
2024/02/27 06:35:30;;;;;;;14.07;8.70;;;9.70;99.90;;;;;;10113160;28;20037;-67
2024/02/27 06:40:20;;;;;;;16.58;8.48;;;9.70;99.90;;;;;;10110252;28;20502;-66
2024/02/27 06:45:13;;;;;;;15.77;9.10;;;9.60;99.90;;;;;;10099616;28;20033;-66
2024/02/27 06:50:04;;;;;;;17.83;9.15;;;9.70;99.90;;;;;;10095849;28;20032;-66
2024/02/27 06:54:54;;;;;;;14.27;9.27;;;9.60;99.90;;;;;;10095688;28;20035;-66
2024/02/27 06:59:45;;;;;;;18.33;9.57;;;9.60;99.90;;;;;;10095949;28;20035;-69
2024/02/27 07:04:36;;;;;;;17.83;9.30;;;9.60;99.90;;;;;;10095083;28;20128;-68
2024/02/27 07:09:28;;;;;;;23.20;11.07;;;9.70;99.90;;;;;;10095477;28;20045;-67
2024/02/27 07:14:19;;;;;;;19.40;8.75;;;9.70;99.90;;;;;;10088801;28;20564;-71
2024/02/27 07:19:09;;;;;;;16.40;8.80;;;9.80;99.90;;;;;;10099448;28;20029;-68
2024/02/27 07:24:00;;;;;;;16.85;9.85;;;9.80;99.90;;;;;;10094908;28;20159;-68
2024/02/27 07:28:51;;;;;;;17.63;8.98;;;9.90;99.90;;;;;;10095923;28;20490;-68
2024/02/27 07:33:42;;;;;;;14.98;8.82;;;9.80;99.90;;;;;;10095342;28;20522;-66
2024/02/27 07:38:32;;;;;;;15.27;8.80;;;9.80;99.90;;;;;;10103956;28;20055;-67
2024/02/27 07:43:24;;;;;;;15.45;8.25;;;9.80;99.90;;;;;;10104424;28;20048;-70
2024/02/27 07:48:14;;;;;;;17.42;9.35;;;9.70;99.90;;;;;;10101376;28;20041;-68
2024/02/27 07:53:05;;;;;;;12.85;7.18;;;9.70;99.90;;;;;;10099389;28;20040;-69
2024/02/27 07:57:55;;;;;;;17.65;8.43;;;9.70;99.90;;;;;;10102060;28;20422;-67
2024/02/27 08:02:46;;;;;;;19.63;10.10;;;9.70;99.90;;;;;;10096092;28;20071;-72
2024/02/27 08:07:37;;;;;;;15.93;8.23;;;9.80;99.90;;;;;;10094510;28;20029;-71
2024/02/27 08:12:27;;;;;;;17.50;9.00;;;9.80;99.90;;;;;;10120331;28;20116;-71
2024/02/27 08:17:18;;;;;;;15.18;7.13;;;9.80;99.90;;;;;;10111128;28;20082;-71
2024/02/27 08:22:09;;;;;;;16.93;8.03;;;9.80;99.90;;;;;;10103585;28;20402;-71
2024/02/27 08:26:59;;;;;;;16.15;8.20;;;9.70;99.90;;;;;;10100804;28;20040;-71
2024/02/27 08:31:50;;;;;;;12.52;7.72;;;9.80;99.90;;;;;;10109959;28;20033;-68
2024/02/27 08:36:41;;;;;;;15.10;9.05;;;9.70;99.90;;;;;;10105599;28;20528;-66
2024/02/27 08:41:33;;;;;;;16.13;8.00;;;9.70;99.90;;;;;;10101031;28;20131;-70
2024/02/27 08:46:24;;;;;;;16.05;8.00;;;9.80;99.90;;;;;;10097597;28;20064;-67
2024/02/27 08:51:15;;;;;;;13.60;7.80;;;9.90;99.90;;;;;;10100302;28;20075;-68
2024/02/27 08:56:06;;;;;;;13.73;8.15;;;9.90;99.90;;;;;;10099543;28;20036;-68
2024/02/27 09:00:57;;;;;;;13.40;8.60;;;9.80;99.90;;;;;;10100058;28;20041;-68
2024/02/27 09:05:47;;;;;;;15.38;8.48;;;9.80;99.90;;;;;;10103261;28;20150;-67
2024/02/27 09:10:39;;;;;;;15.57;7.97;;;9.80;99.90;;;;;;10104056;28;20078;-66
2024/02/27 09:15:29;;;;;;;14.88;8.65;;;9.90;99.90;;;;;;10087533;28;20727;-67
2024/02/27 09:20:20;;;;;;;17.13;9.38;;;10.00;99.90;;;;;;10103682;28;20116;-68
2024/02/27 09:25:13;;;;;;;14.07;7.82;;;10.20;99.90;;;;;;10100588;28;20041;-68
2024/02/27 09:30:04;;;;;;;11.98;7.47;;;10.30;99.90;;;;;;10109570;28;20427;-69
2024/02/27 09:34:55;;;;;;;13.68;7.10;;;10.30;99.90;;;;;;10116018;28;20047;-69
2024/02/27 09:39:46;;;;;;;14.13;7.32;;;10.30;99.90;;;;;;10108407;28;20726;-68
2024/02/27 09:44:52;;;;;;;16.70;7.88;;;10.30;99.90;;;;;;10100581;28;20039;-67
2024/02/27 09:49:45;;;;;;;13.10;8.38;;;10.40;99.90;;;;;;10090048;28;20029;-68
2024/02/27 09:54:37;;;;;;;13.88;7.20;;;10.40;99.90;;;;;;10097654;28;20036;-67
2024/02/27 09:59:28;;;;;;;12.63;7.90;;;10.40;99.90;;;;;;10096712;28;20037;-71
2024/02/27 10:04:21;;;;;;;13.18;7.10;;;10.40;99.90;;;;;;10104554;28;20089;-67
2024/02/27 10:09:14;;;;;;;11.07;7.10;;;10.60;99.90;;;;;;10108140;28;20166;-68
2024/02/27 10:14:20;;;;;;;10.90;6.75;;;10.60;99.90;;;;;;10112300;28;20048;-69
2024/02/27 10:19:11;;;;;;;11.13;6.38;;;10.70;99.90;;;;;;10096472;28;20538;-68
2024/02/27 10:24:02;;;;;;;14.23;7.28;;;10.70;99.90;;;;;;10078297;28;20041;-68
2024/02/27 10:28:53;;;;;;;11.20;6.35;;;10.80;99.90;;;;;;10096499;28;20112;-69
2024/02/27 10:33:44;;;;;;;14.00;6.93;;;11.00;99.90;;;;;;10094955;28;20124;-69
2024/02/27 10:38:35;;;;;;;14.32;6.60;;;11.00;99.90;;;;;;10096040;28;20163;-67
2024/02/27 10:43:26;;;;;;;12.63;6.53;;;11.00;99.90;;;;;;10100082;28;20383;-68
2024/02/27 10:48:17;;;;;;;11.38;7.15;;;11.10;99.90;;;;;;10100039;28;20033;-67
2024/02/27 10:53:09;;;;;;;13.07;6.45;;;11.10;99.90;;;;;;10094882;28;20021;-70
2024/02/27 10:58:00;;;;;;;13.10;6.88;;;11.00;99.90;;;;;;10092533;28;20068;-69
2024/02/27 11:02:56;;;;;;;11.98;7.03;;;11.00;99.90;;;;;;10108789;28;20052;-66
2024/02/27 11:07:48;;;;;;;14.63;7.60;;;11.00;99.90;;;;;;10112381;28;20048;-67
2024/02/27 11:12:41;;;;;;;11.75;6.45;;;11.10;99.90;;;;;;10120462;28;20029;-68
2024/02/27 11:17:39;;;;;;;14.68;7.25;;;11.10;99.90;;;;;;10112020;28;20532;-68
2024/02/27 11:22:30;;;;;;;13.30;7.53;;;11.30;99.90;;;;;;10094776;28;20025;-67
2024/02/27 11:27:23;;;;;;;16.30;7.15;;;11.40;99.90;;;;;;10094671;28;20509;-67
2024/02/27 11:32:15;;;;;;;13.90;8.20;;;11.40;99.90;;;;;;10094333;28;20571;-67
2024/02/27 11:37:20;;;;;;;13.38;7.32;;;11.50;99.90;;;;;;10098343;28;20059;-66
2024/02/27 11:42:35;;;;;;;11.90;7.93;;;11.50;99.90;;;;;;10096390;28;20033;-65
2024/02/27 11:47:48;;;;;;;12.48;7.35;;;11.60;99.90;;;;;;10099871;28;20120;-64
2024/02/27 11:52:43;;;;;;;14.10;7.05;;;11.50;99.90;;;;;;10103484;28;20017;-65
2024/02/27 11:57:37;;;;;;;12.20;7.50;;;11.30;99.90;;;;;;10124616;28;20036;-64
2024/02/27 12:02:32;;;;;;;10.65;7.10;;;11.40;99.90;;;;;;10098723;28;20021;-65
2024/02/27 12:07:32;;;;;;;14.38;8.07;;;11.40;99.90;;;;;;10100220;28;20044;-69
2024/02/27 12:12:24;;;;;;;12.65;7.97;;;11.40;99.90;;;;;;10085357;28;20029;-70
2024/02/27 12:17:15;;;;;;;12.25;6.57;;;11.40;99.90;;;;;;10090862;28;20120;-71
2024/02/27 12:22:06;;;;;;;13.88;7.18;;;11.50;99.90;;;;;;10111847;28;20100;-72
2024/02/27 12:26:57;;;;;;;20.77;8.75;;;11.50;99.90;;;;;;10112656;28;20556;-69
2024/02/27 12:31:49;;;;;;;14.77;8.55;;;11.50;99.90;;;;;;10118947;28;20752;-71
2024/02/27 12:36:39;;;;;;;14.00;7.55;;;11.70;99.90;;;;;;10104433;28;20820;-66
2024/02/27 12:41:30;;;;;;;13.93;7.63;;;11.70;99.90;;;;;;10105543;28;20131;-68
2024/02/27 12:46:22;;;;;;;12.55;7.40;;;11.70;99.90;;;;;;10102592;28;20033;-66
2024/02/27 12:51:14;;;;;;;14.75;7.28;;;11.80;99.90;;;;;;10100684;28;20483;-66
2024/02/27 12:56:05;;;;;;;13.52;8.10;;;11.90;99.90;;;;;;10099618;28;20053;-67
2024/02/27 13:00:57;;;;;;;14.85;8.45;;;11.90;99.90;;;;;;10099811;28;20024;-68
2024/02/27 13:05:47;;;;;;;12.85;6.75;;;11.90;99.90;;;;;;10092274;28;20052;-70
2024/02/27 13:10:39;;;;;;;14.60;7.10;;;12.00;99.90;;;;;;10105375;28;20036;-67
2024/02/27 13:15:29;;;;;;;10.13;6.07;;;12.00;99.90;;;;;;10117498;28;20323;-67
2024/02/27 13:20:20;;;;;;;12.05;6.80;;;12.00;99.90;;;;;;10103590;28;20086;-67
2024/02/27 13:25:12;;;;;;;11.88;6.93;;;12.10;99.90;;;;;;10111412;28;20040;-66
2024/02/27 13:30:04;;;;;;;13.32;6.53;;;12.00;99.90;;;;;;10101494;28;20036;-66
2024/02/27 13:34:54;;;;;;;14.10;7.22;;;12.10;99.90;;;;;;10095193;28;20055;-66
2024/02/27 13:39:45;;;;;;;16.58;6.50;;;12.10;99.90;;;;;;10103015;28;20041;-67
2024/02/27 13:44:36;;;;;;;13.27;7.43;;;12.10;99.90;;;;;;10099487;28;20086;-67
2024/02/27 13:49:26;;;;;;;12.32;6.18;;;12.10;99.90;;;;;;10099549;28;20029;-67
2024/02/27 13:54:17;;;;;;;10.13;6.40;;;12.30;99.90;;;;;;10097465;28;20116;-67
2024/02/27 13:59:08;;;;;;;15.13;6.60;;;12.20;99.90;;;;;;10079358;28;20025;-66
2024/02/27 14:03:59;;;;;;;13.20;7.22;;;12.10;99.90;;;;;;10078532;28;20033;-64
2024/02/27 14:08:49;;;;;;;13.75;6.97;;;12.20;99.90;;;;;;10103395;28;20497;-65
2024/02/27 14:13:40;;;;;;;14.93;7.95;;;12.20;99.90;;;;;;10104764;28;20143;-65
2024/02/27 14:18:31;;;;;;;10.40;6.40;;;12.20;99.90;;;;;;10082715;28;20586;-64
2024/02/27 14:23:21;;;;;;;12.93;6.97;;;12.30;99.90;;;;;;10103741;28;20049;-65
2024/02/27 14:28:12;;;;;;;10.75;6.07;;;12.30;99.90;;;;;;10104868;28;20421;-68
2024/02/27 14:33:03;;;;;;;13.52;7.18;;;12.30;99.90;;;;;;10113566;28;20037;-66
2024/02/27 14:37:53;;;;;;;12.80;7.68;;;12.20;99.90;;;;;;10120568;28;20052;-66
2024/02/27 14:42:47;;;;;;;14.23;7.38;;;12.10;99.90;;;;;;10103839;28;20116;-66
2024/02/27 14:47:38;;;;;;;12.73;5.95;;;12.00;99.90;;;;;;10096122;28;20025;-66
2024/02/27 14:52:29;;;;;;;12.05;6.57;;;11.90;99.90;;;;;;10096062;28;20056;-66
2024/02/27 14:57:19;;;;;;;14.55;7.50;;;11.90;99.90;;;;;;10077497;28;20389;-67
2024/02/27 15:02:11;;;;;;;12.07;6.50;;;11.90;99.90;;;;;;10099252;28;20040;-67
2024/02/27 15:07:02;;;;;;;13.60;6.13;;;11.90;99.90;;;;;;10095527;28;20204;-67
2024/02/27 15:11:53;;;;;;;9.90;6.90;;;12.00;99.90;;;;;;10101462;28;20106;-66
2024/02/27 15:16:44;;;;;;;13.13;7.30;;;12.00;99.90;;;;;;10101812;28;20102;-67
2024/02/27 15:21:34;;;;;;;11.43;7.22;;;11.90;99.90;;;;;;10087284;28;20119;-65
2024/02/27 15:26:25;;;;;;;10.20;6.65;;;11.90;99.90;;;;;;10086500;28;20033;-65
2024/02/27 15:31:17;;;;;;;11.65;7.25;;;11.90;99.90;;;;;;10106085;28;20033;-66
2024/02/27 15:36:08;;;;;;;11.50;6.63;;;11.90;99.90;;;;;;10103372;28;20021;-68
2024/02/27 15:41:01;;;;;;;12.10;7.20;;;12.00;99.90;;;;;;10103715;28;20091;-65
2024/02/27 15:45:52;;;;;;;13.38;6.28;;;12.00;99.90;;;;;;10107345;28;20098;-68
2024/02/27 15:50:42;;;;;;;11.10;6.82;;;12.10;99.90;;;;;;10114951;28;20081;-66
2024/02/27 15:55:33;;;;;;;12.82;6.78;;;12.10;99.90;;;;;;10110877;28;20085;-67
2024/02/27 16:00:24;;;;;;;12.38;6.47;;;12.00;99.90;;;;;;10106135;28;20041;-67
2024/02/27 16:05:19;;;;;;;11.93;6.78;;;12.10;99.90;;;;;;10121339;28;20293;-67
2024/02/27 16:10:10;;;;;;;12.93;6.90;;;12.10;99.90;;;;;;10101117;28;20486;-68
2024/02/27 16:15:01;;;;;;;16.70;6.88;;;12.10;99.90;;;;;;10119621;28;20028;-66
2024/02/27 16:19:52;;;;;;;15.65;6.85;;;12.10;99.90;;;;;;10127135;28;20641;-67
2024/02/27 16:24:42;;;;;;;9.20;5.53;;;12.10;99.90;;;;;;10106755;28;20560;-67
2024/02/27 16:29:33;;;;;;;12.52;6.70;;;12.10;99.90;;;;;;10115162;28;20069;-66
2024/02/27 16:34:23;;;;;;;11.18;6.55;;;12.20;99.90;;;;;;10100514;28;20033;-68
2024/02/27 16:39:15;;;;;;;11.35;6.20;;;12.20;99.90;;;;;;10100294;28;20041;-65
2024/02/27 16:44:06;;;;;;;14.50;7.18;;;12.20;99.90;;;;;;10105490;28;20029;-65
2024/02/27 16:48:57;;;;;;;13.70;7.60;;;12.10;99.90;;;;;;10114957;28;20013;-66
2024/02/27 16:53:47;;;;;;;10.30;6.05;;;12.10;99.90;;;;;;10087896;28;20047;-66
2024/02/27 16:58:38;;;;;;;12.40;6.78;;;12.20;99.90;;;;;;10090086;28;20017;-66
2024/02/27 17:03:29;;;;;;;12.05;7.18;;;12.10;99.90;;;;;;10105013;28;20033;-67
2024/02/27 17:08:19;;;;;;;11.98;6.35;;;12.10;99.90;;;;;;10117943;28;20315;-70
2024/02/27 17:13:10;;;;;;;10.10;5.88;;;12.00;99.90;;;;;;10106931;28;20025;-65
2024/02/27 17:18:01;;;;;;;10.32;6.18;;;12.00;99.90;;;;;;10097778;28;20029;-74
2024/02/27 17:22:54;;;;;;;9.30;6.55;;;12.10;99.90;;;;;;10086961;28;20044;-73
2024/02/27 17:27:44;;;;;;;14.75;7.22;;;12.00;99.90;;;;;;10091354;28;20093;-72
2024/02/27 17:32:37;;;;;;;11.30;6.80;;;12.00;99.90;;;;;;10103347;28;20376;-71
2024/02/27 17:37:27;;;;;;;12.23;5.85;;;12.00;99.90;;;;;;10100702;28;20795;-71
2024/02/27 17:42:18;;;;;;;8.93;5.28;;;11.90;99.90;;;;;;10095973;28;20036;-69
2024/02/27 17:47:09;;;;;;;13.98;6.32;;;12.00;99.90;;;;;;10096920;28;20037;-69
2024/02/27 17:52:00;;;;;;;11.25;5.78;;;12.00;99.90;;;;;;10098294;28;20030;-73
2024/02/27 17:56:51;;;;;;;11.15;6.18;;;12.00;99.90;;;;;;10095650;28;20075;-67
2024/02/27 18:01:42;;;;;;;9.60;6.50;;;12.00;99.90;;;;;;10093237;28;20037;-69
2024/02/27 18:06:33;;;;;;;11.55;6.20;;;11.90;99.90;;;;;;10097518;28;20111;-65
2024/02/27 18:11:24;;;;;;;10.32;5.55;;;11.90;99.90;;;;;;10097967;28;20036;-68
2024/02/27 18:16:18;;;;;;;8.48;5.40;;;11.90;99.90;;;;;;10102477;28;20048;-68
2024/02/27 18:21:08;;;;;;;12.00;6.97;;;11.90;99.90;;;;;;10110593;28;20176;-66
2024/02/27 18:25:59;;;;;;;9.43;6.18;;;11.90;99.90;;;;;;10119776;28;20494;-66
2024/02/27 18:30:50;;;;;;;10.70;6.22;;;11.90;99.90;;;;;;10132427;28;20079;-66
2024/02/27 18:35:44;;;;;;;10.60;6.50;;;11.80;99.90;;;;;;10111207;28;20040;-66
2024/02/27 18:40:35;;;;;;;11.13;6.78;;;11.80;99.90;;;;;;10114446;28;20049;-66
2024/02/27 18:45:26;;;;;;;13.82;7.38;;;11.70;99.90;;;;;;10117398;28;20036;-66
2024/02/27 18:50:17;;;;;;;11.15;7.45;;;11.70;99.90;;;;;;10109772;28;20057;-65
2024/02/27 18:55:08;;;;;;;10.98;7.07;;;11.70;99.90;;;;;;10112234;28;20312;-65
2024/02/27 18:59:58;;;;;;;12.52;7.35;;;11.70;99.90;;;;;;10114249;28;21366;-65
2024/02/27 19:04:49;;;;;;;13.63;7.43;;;11.70;99.90;;;;;;10124924;28;20041;-66
2024/02/27 19:09:39;;;;;;;10.25;7.00;;;11.60;99.90;;;;;;10125862;28;20028;-68
2024/02/27 19:14:30;;;;;;;10.88;6.25;;;11.70;99.90;;;;;;10109693;28;20029;-68
2024/02/27 19:19:21;;;;;;;11.80;7.13;;;11.60;99.90;;;;;;10113624;28;20088;-66
2024/02/27 19:24:11;;;;;;;11.10;6.45;;;11.60;99.90;;;;;;10119660;28;20048;-65
2024/02/27 19:29:02;;;;;;;10.27;6.43;;;11.50;99.90;;;;;;10110004;28;20377;-65
2024/02/27 19:33:53;;;;;;;13.45;7.28;;;11.50;99.90;;;;;;10119826;28;20326;-66
2024/02/27 19:38:44;;;;;;;14.52;7.55;;;11.60;99.90;;;;;;10122183;28;20053;-71
2024/02/27 19:43:34;;;;;;;14.88;7.57;;;11.60;99.90;;;;;;10107633;28;20244;-66
2024/02/27 19:48:26;;;;;;;17.95;8.35;;;11.60;99.90;;;;;;10122386;28;20103;-65
2024/02/27 19:53:17;;;;;;;10.07;6.57;;;11.50;99.90;;;;;;10104821;28;20056;-65
2024/02/27 19:58:08;;;;;;;13.48;7.47;;;11.50;99.90;;;;;;10121794;28;20623;-65
2024/02/27 20:02:59;;;;;;;14.43;7.63;;;11.50;99.90;;;;;;10114064;28;20033;-65
2024/02/27 20:07:49;;;;;;;16.77;7.97;;;11.40;99.90;;;;;;10118403;28;21346;-65
2024/02/27 20:12:41;;;;;;;12.77;7.65;;;11.40;99.90;;;;;;10144155;28;20033;-66
2024/02/27 20:17:32;;;;;;;12.70;7.30;;;11.40;99.90;;;;;;10106344;28;20434;-65
2024/02/27 20:22:22;;;;;;;13.13;8.00;;;11.40;99.90;;;;;;10126403;28;20092;-65
2024/02/27 20:27:13;;;;;;;10.85;6.55;;;11.50;99.90;;;;;;10128650;28;20110;-66
2024/02/27 20:32:04;;;;;;;10.02;6.22;;;11.40;99.90;;;;;;10129280;28;20032;-65
2024/02/27 20:36:55;;;;;;;11.75;6.32;;;11.40;99.90;;;;;;10118682;28;20029;-65
2024/02/27 20:41:45;;;;;;;11.10;6.75;;;11.40;99.90;;;;;;10101805;28;20538;-66
2024/02/27 20:46:36;;;;;;;12.15;7.43;;;11.30;99.90;;;;;;10115989;28;20108;-66
2024/02/27 20:51:27;;;;;;;10.73;7.15;;;11.30;99.90;;;;;;10117162;28;20036;-67
2024/02/27 20:56:18;;;;;;;13.00;7.63;;;11.40;99.90;;;;;;10126191;28;20028;-65
2024/02/27 21:01:08;;;;;;;13.80;7.97;;;11.40;99.90;;;;;;10120069;28;20494;-66
2024/02/27 21:05:59;;;;;;;11.70;6.15;;;11.30;99.90;;;;;;10110316;28;20040;-66
2024/02/27 21:10:49;;;;;;;11.40;6.03;;;11.30;99.90;;;;;;10120290;28;20132;-65
2024/02/27 21:15:40;;;;;;;11.85;6.18;;;11.20;99.90;;;;;;10102264;28;20167;-67
2024/02/27 21:20:31;;;;;;;9.27;5.45;;;11.20;99.90;;;;;;10106674;28;20029;-66
2024/02/27 21:25:21;;;;;;;8.55;5.63;;;11.10;99.90;;;;;;10088913;28;20056;-67
2024/02/27 21:30:12;;;;;;;9.90;5.53;;;11.10;99.90;;;;;;10117950;28;20071;-66
2024/02/27 21:35:04;;;;;;;9.32;5.97;;;10.90;99.90;;;;;;10117747;28;20032;-67
2024/02/27 21:39:54;;;;;;;10.90;5.97;;;10.90;99.90;;;;;;10127534;28;20124;-67
2024/02/27 21:44:45;;;;;;;10.45;6.32;;;10.80;99.90;;;;;;10119130;28;20044;-68
2024/02/27 21:49:35;;;;;;;9.75;5.95;;;10.80;99.90;;;;;;10118767;28;20060;-66
2024/02/27 21:54:26;;;;;;;10.02;5.90;;;10.90;99.90;;;;;;10123099;28;20049;-68
2024/02/27 21:59:17;;;;;;;11.85;6.22;;;10.90;99.90;;;;;;10116522;28;20102;-66
2024/02/27 22:04:08;;;;;;;11.15;6.15;;;10.90;99.90;;;;;;10108133;28;20057;-66
2024/02/27 22:08:58;;;;;;;10.20;5.60;;;10.90;99.90;;;;;;10101786;28;20430;-66
2024/02/27 22:13:49;;;;;;;9.23;5.40;;;10.90;99.90;;;;;;10117775;28;20091;-65
2024/02/27 22:18:40;;;;;;;9.30;5.68;;;10.90;99.90;;;;;;10117876;28;20040;-66
2024/02/27 22:23:30;;;;;;;12.02;5.70;;;10.90;99.90;;;;;;10100076;28;20083;-66
2024/02/27 22:28:21;;;;;;;7.20;5.53;;;10.90;99.90;;;;;;10112149;28;20155;-66
2024/02/27 22:33:12;;;;;;;13.23;6.43;;;11.00;99.90;;;;;;10103476;28;20064;-66
2024/02/27 22:38:11;;;;;;;10.85;6.25;;;10.90;99.90;;;;;;10116756;28;20076;-65
2024/02/27 22:43:02;;;;;;;11.10;6.28;;;10.80;99.90;;;;;;10104788;28;20040;-67
2024/02/27 22:47:53;;;;;;;10.90;5.88;;;10.70;99.90;;;;;;10113599;28;20044;-67
2024/02/27 22:52:43;;;;;;;8.98;5.32;;;10.70;99.90;;;;;;10119856;28;20029;-66
2024/02/27 22:57:34;;;;;;;10.07;5.45;;;10.70;99.90;;;;;;10118259;28;20101;-65
2024/02/27 23:02:25;;;;;;;10.98;5.60;;;10.60;99.90;;;;;;10119834;28;20096;-65
2024/02/27 23:07:15;;;;;;;12.02;6.05;;;10.60;99.90;;;;;;10100179;28;20056;-66
2024/02/27 23:12:06;;;;;;;9.35;5.43;;;10.60;99.90;;;;;;10108877;28;20032;-66
2024/02/27 23:16:57;;;;;;;10.57;5.55;;;10.60;99.90;;;;;;10118460;28;20426;-65
2024/02/27 23:21:47;;;;;;;9.98;6.63;;;10.50;99.90;;;;;;10119928;28;20039;-65
2024/02/27 23:26:38;;;;;;;11.70;6.40;;;10.50;99.90;;;;;;10132545;28;20032;-68
2024/02/27 23:31:29;;;;;;;8.15;5.85;;;10.40;99.90;;;;;;10135928;28;20218;-65
2024/02/27 23:36:19;;;;;;;12.48;5.50;;;10.40;99.90;;;;;;10130427;28;20048;-66
2024/02/27 23:41:10;;;;;;;9.70;5.43;;;10.40;99.90;;;;;;10136029;28;20052;-67
2024/02/27 23:46:01;;;;;;;12.52;6.47;;;10.40;99.90;;;;;;10121370;28;20037;-66
2024/02/27 23:50:52;;;;;;;11.50;6.47;;;10.30;99.90;;;;;;10115700;28;20051;-66
2024/02/27 23:55:42;;;;;;;8.45;5.82;;;10.30;99.90;;;;;;10120182;28;20033;-65
